Terminal Aerodrome Forecast
Issued by NWS

Home | Current Version | Previous Version | Text Only | Print | Product List | Glossary On
Versions: 1 2 3 4 5 6 7 8 9 10 11 12 13 14 15 16 17 18 19 20 21 22 23 24 25 26
000
FTUS43 KAPX 071729
TAFPLN
TAF
KPLN 071729Z 0718/0818 25015G23KT 6SM -SHSN OVC025
      TEMPO 0719/0722 1SM -SHSN
     FM072200 25015G25KT 5SM -SHSN OVC015
     FM080700 26015G23KT 6SM -SHSN OVC015
     FM081100 28013KT 6SM -SHSN OVC020
     FM081200 29011G21KT 2SM -SHSN BLSN OVC025
     FM081500 31011G21KT 6SM -SHSN BLSN OVC015=

USA.gov is the U.S. government's official web portal to all federal, state and local government web resources and services.